sensor_id;sensor_type;location;lat;lon;timestamp;P1;durP1;ratioP1;P2;durP2;ratioP2
8058;SDS011;4072;42.668;23.396;2023-12-14T00:00:08;20.20;;;13.20;;
8058;SDS011;4072;42.668;23.396;2023-12-14T00:02:36;27.07;;;17.83;;
8058;SDS011;4072;42.668;23.396;2023-12-14T00:05:09;28.47;;;18.27;;
8058;SDS011;4072;42.668;23.396;2023-12-14T00:07:37;30.07;;;19.33;;
8058;SDS011;4072;42.668;23.396;2023-12-14T00:10:06;30.13;;;18.70;;
8058;SDS011;4072;42.668;23.396;2023-12-14T00:12:35;27.27;;;19.03;;
8058;SDS011;4072;42.668;23.396;2023-12-14T00:15:03;36.43;;;21.63;;
8058;SDS011;4072;42.668;23.396;2023-12-14T00:17:32;30.43;;;20.43;;
8058;SDS011;4072;42.668;23.396;2023-12-14T00:20:00;33.13;;;19.97;;
8058;SDS011;4072;42.668;23.396;2023-12-14T00:22:31;31.00;;;19.00;;
8058;SDS011;4072;42.668;23.396;2023-12-14T00:25:00;28.07;;;17.87;;
8058;SDS011;4072;42.668;23.396;2023-12-14T00:27:28;23.27;;;16.07;;
8058;SDS011;4072;42.668;23.396;2023-12-14T00:29:56;19.43;;;13.87;;
8058;SDS011;4072;42.668;23.396;2023-12-14T00:32:25;22.60;;;15.77;;
8058;SDS011;4072;42.668;23.396;2023-12-14T00:34:53;26.53;;;17.23;;
8058;SDS011;4072;42.668;23.396;2023-12-14T00:37:21;19.70;;;14.07;;
8058;SDS011;4072;42.668;23.396;2023-12-14T00:39:51;17.23;;;13.00;;
8058;SDS011;4072;42.668;23.396;2023-12-14T00:42:21;20.83;;;14.47;;
8058;SDS011;4072;42.668;23.396;2023-12-14T00:44:49;18.53;;;12.40;;
8058;SDS011;4072;42.668;23.396;2023-12-14T00:47:17;18.37;;;12.73;;
8058;SDS011;4072;42.668;23.396;2023-12-14T00:49:46;16.13;;;12.37;;
8058;SDS011;4072;42.668;23.396;2023-12-14T00:52:15;16.67;;;12.27;;
8058;SDS011;4072;42.668;23.396;2023-12-14T00:54:43;15.37;;;12.30;;
8058;SDS011;4072;42.668;23.396;2023-12-14T00:57:14;16.37;;;12.20;;
8058;SDS011;4072;42.668;23.396;2023-12-14T00:59:42;16.90;;;12.90;;
8058;SDS011;4072;42.668;23.396;2023-12-14T01:02:12;17.90;;;11.23;;
8058;SDS011;4072;42.668;23.396;2023-12-14T01:04:40;15.30;;;11.73;;
8058;SDS011;4072;42.668;23.396;2023-12-14T01:07:10;15.93;;;11.53;;
8058;SDS011;4072;42.668;23.396;2023-12-14T01:09:38;20.13;;;13.17;;
8058;SDS011;4072;42.668;23.396;2023-12-14T01:12:06;15.77;;;12.07;;
8058;SDS011;4072;42.668;23.396;2023-12-14T01:14:36;14.40;;;10.70;;
8058;SDS011;4072;42.668;23.396;2023-12-14T01:17:04;14.80;;;11.50;;
8058;SDS011;4072;42.668;23.396;2023-12-14T01:19:33;19.33;;;11.40;;
8058;SDS011;4072;42.668;23.396;2023-12-14T01:22:01;14.20;;;11.10;;
8058;SDS011;4072;42.668;23.396;2023-12-14T01:24:29;18.93;;;12.50;;
8058;SDS011;4072;42.668;23.396;2023-12-14T01:26:57;17.27;;;12.30;;
8058;SDS011;4072;42.668;23.396;2023-12-14T01:29:27;16.33;;;11.83;;
8058;SDS011;4072;42.668;23.396;2023-12-14T01:31:56;17.60;;;12.10;;
8058;SDS011;4072;42.668;23.396;2023-12-14T01:34:24;17.03;;;12.03;;
8058;SDS011;4072;42.668;23.396;2023-12-14T01:36:53;15.83;;;11.67;;
8058;SDS011;4072;42.668;23.396;2023-12-14T01:39:21;14.90;;;11.50;;
8058;SDS011;4072;42.668;23.396;2023-12-14T01:41:50;16.50;;;11.53;;
8058;SDS011;4072;42.668;23.396;2023-12-14T01:44:18;15.83;;;11.27;;
8058;SDS011;4072;42.668;23.396;2023-12-14T01:46:46;15.27;;;11.33;;
8058;SDS011;4072;42.668;23.396;2023-12-14T01:49:15;14.10;;;10.70;;
8058;SDS011;4072;42.668;23.396;2023-12-14T01:51:44;15.07;;;12.03;;
8058;SDS011;4072;42.668;23.396;2023-12-14T01:54:13;14.93;;;11.07;;
8058;SDS011;4072;42.668;23.396;2023-12-14T01:56:42;15.13;;;11.43;;
8058;SDS011;4072;42.668;23.396;2023-12-14T01:59:10;15.37;;;11.63;;
8058;SDS011;4072;42.668;23.396;2023-12-14T02:01:40;15.93;;;10.30;;
8058;SDS011;4072;42.668;23.396;2023-12-14T02:04:10;14.93;;;11.37;;
8058;SDS011;4072;42.668;23.396;2023-12-14T02:06:41;14.80;;;10.90;;
8058;SDS011;4072;42.668;23.396;2023-12-14T02:09:09;13.90;;;9.73;;
8058;SDS011;4072;42.668;23.396;2023-12-14T02:11:36;14.13;;;10.47;;
8058;SDS011;4072;42.668;23.396;2023-12-14T02:14:05;13.47;;;10.53;;
8058;SDS011;4072;42.668;23.396;2023-12-14T02:16:35;14.43;;;9.57;;
8058;SDS011;4072;42.668;23.396;2023-12-14T02:19:05;13.00;;;10.03;;
8058;SDS011;4072;42.668;23.396;2023-12-14T02:21:33;14.70;;;10.83;;
8058;SDS011;4072;42.668;23.396;2023-12-14T02:24:03;17.10;;;11.10;;
8058;SDS011;4072;42.668;23.396;2023-12-14T02:26:32;12.80;;;9.67;;
8058;SDS011;4072;42.668;23.396;2023-12-14T02:29:00;14.00;;;11.13;;
8058;SDS011;4072;42.668;23.396;2023-12-14T02:31:29;11.53;;;10.00;;
8058;SDS011;4072;42.668;23.396;2023-12-14T02:33:57;11.47;;;9.77;;
8058;SDS011;4072;42.668;23.396;2023-12-14T02:36:25;12.80;;;9.70;;
8058;SDS011;4072;42.668;23.396;2023-12-14T02:38:54;13.27;;;9.73;;
8058;SDS011;4072;42.668;23.396;2023-12-14T02:41:24;13.87;;;10.07;;
8058;SDS011;4072;42.668;23.396;2023-12-14T02:43:52;12.83;;;9.47;;
8058;SDS011;4072;42.668;23.396;2023-12-14T02:46:20;13.50;;;10.40;;
8058;SDS011;4072;42.668;23.396;2023-12-14T02:48:48;14.27;;;10.47;;
8058;SDS011;4072;42.668;23.396;2023-12-14T02:51:17;15.97;;;10.77;;
8058;SDS011;4072;42.668;23.396;2023-12-14T02:53:45;15.53;;;10.03;;
8058;SDS011;4072;42.668;23.396;2023-12-14T02:56:14;12.40;;;10.23;;
8058;SDS011;4072;42.668;23.396;2023-12-14T02:58:44;14.83;;;10.40;;
8058;SDS011;4072;42.668;23.396;2023-12-14T03:01:15;13.57;;;10.07;;
8058;SDS011;4072;42.668;23.396;2023-12-14T03:03:46;14.07;;;11.10;;
8058;SDS011;4072;42.668;23.396;2023-12-14T03:06:16;12.20;;;10.30;;
8058;SDS011;4072;42.668;23.396;2023-12-14T03:08:44;13.43;;;10.17;;
8058;SDS011;4072;42.668;23.396;2023-12-14T03:11:20;13.07;;;10.27;;
8058;SDS011;4072;42.668;23.396;2023-12-14T03:13:50;15.03;;;10.47;;
8058;SDS011;4072;42.668;23.396;2023-12-14T03:16:19;16.80;;;9.97;;
8058;SDS011;4072;42.668;23.396;2023-12-14T03:18:48;17.37;;;9.73;;
8058;SDS011;4072;42.668;23.396;2023-12-14T03:21:19;12.37;;;9.23;;
8058;SDS011;4072;42.668;23.396;2023-12-14T03:23:48;12.17;;;9.07;;
8058;SDS011;4072;42.668;23.396;2023-12-14T03:26:16;10.73;;;8.20;;
8058;SDS011;4072;42.668;23.396;2023-12-14T03:28:45;10.37;;;8.53;;
8058;SDS011;4072;42.668;23.396;2023-12-14T03:31:14;13.27;;;9.40;;
8058;SDS011;4072;42.668;23.396;2023-12-14T03:33:42;10.37;;;8.83;;
8058;SDS011;4072;42.668;23.396;2023-12-14T03:36:11;11.67;;;9.23;;
8058;SDS011;4072;42.668;23.396;2023-12-14T03:38:39;11.60;;;9.73;;
8058;SDS011;4072;42.668;23.396;2023-12-14T03:41:07;13.43;;;9.43;;
8058;SDS011;4072;42.668;23.396;2023-12-14T03:43:35;10.47;;;8.30;;
8058;SDS011;4072;42.668;23.396;2023-12-14T03:46:04;12.27;;;8.83;;
8058;SDS011;4072;42.668;23.396;2023-12-14T03:48:34;12.83;;;9.40;;
8058;SDS011;4072;42.668;23.396;2023-12-14T03:51:02;12.30;;;8.87;;
8058;SDS011;4072;42.668;23.396;2023-12-14T03:53:31;13.73;;;9.83;;
8058;SDS011;4072;42.668;23.396;2023-12-14T03:56:00;13.43;;;9.17;;
8058;SDS011;4072;42.668;23.396;2023-12-14T03:58:29;13.20;;;8.57;;
8058;SDS011;4072;42.668;23.396;2023-12-14T04:00:57;12.70;;;9.63;;
8058;SDS011;4072;42.668;23.396;2023-12-14T04:03:27;11.47;;;8.77;;
8058;SDS011;4072;42.668;23.396;2023-12-14T04:05:56;11.97;;;8.83;;
8058;SDS011;4072;42.668;23.396;2023-12-14T04:08:24;11.80;;;9.40;;
8058;SDS011;4072;42.668;23.396;2023-12-14T04:10:52;13.00;;;9.27;;
8058;SDS011;4072;42.668;23.396;2023-12-14T04:13:21;10.77;;;8.93;;
8058;SDS011;4072;42.668;23.396;2023-12-14T04:15:49;12.60;;;9.13;;
8058;SDS011;4072;42.668;23.396;2023-12-14T04:18:17;13.67;;;9.60;;
8058;SDS011;4072;42.668;23.396;2023-12-14T04:20:46;11.37;;;8.93;;
8058;SDS011;4072;42.668;23.396;2023-12-14T04:23:15;11.27;;;8.97;;
8058;SDS011;4072;42.668;23.396;2023-12-14T04:25:44;11.63;;;9.00;;
8058;SDS011;4072;42.668;23.396;2023-12-14T04:28:12;11.70;;;8.13;;
8058;SDS011;4072;42.668;23.396;2023-12-14T04:30:43;11.30;;;8.73;;
8058;SDS011;4072;42.668;23.396;2023-12-14T04:33:12;11.60;;;8.90;;
8058;SDS011;4072;42.668;23.396;2023-12-14T04:35:41;16.57;;;9.70;;
8058;SDS011;4072;42.668;23.396;2023-12-14T04:38:09;12.23;;;8.80;;
8058;SDS011;4072;42.668;23.396;2023-12-14T04:40:38;11.53;;;9.40;;
8058;SDS011;4072;42.668;23.396;2023-12-14T04:43:09;12.77;;;10.13;;
8058;SDS011;4072;42.668;23.396;2023-12-14T04:45:37;31.77;;;26.40;;
8058;SDS011;4072;42.668;23.396;2023-12-14T04:48:05;38.43;;;34.03;;
8058;SDS011;4072;42.668;23.396;2023-12-14T04:50:34;40.60;;;32.73;;
8058;SDS011;4072;42.668;23.396;2023-12-14T04:53:02;32.77;;;26.93;;
8058;SDS011;4072;42.668;23.396;2023-12-14T04:55:31;32.20;;;28.73;;
8058;SDS011;4072;42.668;23.396;2023-12-14T04:58:01;39.53;;;32.03;;
8058;SDS011;4072;42.668;23.396;2023-12-14T05:00:29;30.73;;;26.37;;
8058;SDS011;4072;42.668;23.396;2023-12-14T05:02:57;30.67;;;27.07;;
8058;SDS011;4072;42.668;23.396;2023-12-14T05:05:26;30.23;;;25.90;;
8058;SDS011;4072;42.668;23.396;2023-12-14T05:07:54;28.93;;;24.50;;
8058;SDS011;4072;42.668;23.396;2023-12-14T05:10:22;28.30;;;24.90;;
8058;SDS011;4072;42.668;23.396;2023-12-14T05:12:51;31.20;;;24.10;;
8058;SDS011;4072;42.668;23.396;2023-12-14T05:15:20;23.50;;;20.20;;
8058;SDS011;4072;42.668;23.396;2023-12-14T05:17:48;28.67;;;20.03;;
8058;SDS011;4072;42.668;23.396;2023-12-14T05:20:17;30.20;;;21.77;;
8058;SDS011;4072;42.668;23.396;2023-12-14T05:22:47;30.57;;;25.37;;
8058;SDS011;4072;42.668;23.396;2023-12-14T05:25:15;31.60;;;22.83;;
8058;SDS011;4072;42.668;23.396;2023-12-14T05:27:43;33.00;;;23.90;;
8058;SDS011;4072;42.668;23.396;2023-12-14T05:30:13;25.10;;;18.73;;
8058;SDS011;4072;42.668;23.396;2023-12-14T05:32:43;27.73;;;20.80;;
8058;SDS011;4072;42.668;23.396;2023-12-14T05:35:11;25.17;;;20.20;;
8058;SDS011;4072;42.668;23.396;2023-12-14T05:37:39;26.20;;;20.70;;
8058;SDS011;4072;42.668;23.396;2023-12-14T05:40:09;26.00;;;20.47;;
8058;SDS011;4072;42.668;23.396;2023-12-14T05:42:38;23.60;;;18.60;;
8058;SDS011;4072;42.668;23.396;2023-12-14T05:45:07;21.90;;;17.03;;
8058;SDS011;4072;42.668;23.396;2023-12-14T05:47:38;22.17;;;17.20;;
8058;SDS011;4072;42.668;23.396;2023-12-14T05:50:10;15.63;;;12.10;;
8058;SDS011;4072;42.668;23.396;2023-12-14T05:52:39;22.20;;;16.57;;
8058;SDS011;4072;42.668;23.396;2023-12-14T05:55:08;25.27;;;18.83;;
8058;SDS011;4072;42.668;23.396;2023-12-14T05:57:37;20.30;;;15.40;;
8058;SDS011;4072;42.668;23.396;2023-12-14T06:00:06;15.43;;;13.23;;
8058;SDS011;4072;42.668;23.396;2023-12-14T06:02:35;22.23;;;14.53;;
8058;SDS011;4072;42.668;23.396;2023-12-14T06:05:05;17.50;;;14.27;;
8058;SDS011;4072;42.668;23.396;2023-12-14T06:07:36;20.60;;;15.07;;
8058;SDS011;4072;42.668;23.396;2023-12-14T06:10:05;21.97;;;14.90;;
8058;SDS011;4072;42.668;23.396;2023-12-14T06:12:34;16.03;;;13.27;;
8058;SDS011;4072;42.668;23.396;2023-12-14T06:15:04;15.50;;;12.77;;
8058;SDS011;4072;42.668;23.396;2023-12-14T06:17:33;21.63;;;14.97;;
8058;SDS011;4072;42.668;23.396;2023-12-14T06:20:04;18.67;;;11.43;;
8058;SDS011;4072;42.668;23.396;2023-12-14T06:22:37;15.87;;;12.80;;
8058;SDS011;4072;42.668;23.396;2023-12-14T06:25:05;15.30;;;13.10;;
8058;SDS011;4072;42.668;23.396;2023-12-14T06:27:34;20.20;;;12.83;;
8058;SDS011;4072;42.668;23.396;2023-12-14T06:30:02;18.10;;;12.80;;
8058;SDS011;4072;42.668;23.396;2023-12-14T06:32:32;15.97;;;12.90;;
8058;SDS011;4072;42.668;23.396;2023-12-14T06:35:01;19.60;;;13.30;;
8058;SDS011;4072;42.668;23.396;2023-12-14T06:37:29;22.00;;;14.23;;
8058;SDS011;4072;42.668;23.396;2023-12-14T06:39:59;17.53;;;12.10;;
8058;SDS011;4072;42.668;23.396;2023-12-14T06:42:27;16.63;;;13.37;;
8058;SDS011;4072;42.668;23.396;2023-12-14T06:44:57;22.37;;;13.70;;
8058;SDS011;4072;42.668;23.396;2023-12-14T06:47:25;19.43;;;13.43;;
8058;SDS011;4072;42.668;23.396;2023-12-14T06:49:54;19.83;;;14.47;;
8058;SDS011;4072;42.668;23.396;2023-12-14T06:52:23;18.33;;;13.53;;
8058;SDS011;4072;42.668;23.396;2023-12-14T06:54:52;15.00;;;11.57;;
8058;SDS011;4072;42.668;23.396;2023-12-14T06:57:21;16.47;;;13.43;;
8058;SDS011;4072;42.668;23.396;2023-12-14T06:59:53;16.40;;;12.80;;
8058;SDS011;4072;42.668;23.396;2023-12-14T07:02:21;17.43;;;12.70;;
8058;SDS011;4072;42.668;23.396;2023-12-14T07:04:49;15.90;;;12.43;;
8058;SDS011;4072;42.668;23.396;2023-12-14T07:07:18;15.40;;;12.60;;
8058;SDS011;4072;42.668;23.396;2023-12-14T07:09:46;17.97;;;12.53;;
8058;SDS011;4072;42.668;23.396;2023-12-14T07:12:15;21.13;;;13.97;;
8058;SDS011;4072;42.668;23.396;2023-12-14T07:14:45;20.23;;;14.03;;
8058;SDS011;4072;42.668;23.396;2023-12-14T07:17:14;19.10;;;12.73;;
8058;SDS011;4072;42.668;23.396;2023-12-14T07:19:42;15.33;;;13.07;;
8058;SDS011;4072;42.668;23.396;2023-12-14T07:22:10;12.57;;;10.20;;
8058;SDS011;4072;42.668;23.396;2023-12-14T07:24:38;15.80;;;10.60;;
8058;SDS011;4072;42.668;23.396;2023-12-14T07:27:18;19.50;;;11.67;;
8058;SDS011;4072;42.668;23.396;2023-12-14T07:29:48;15.30;;;11.30;;
8058;SDS011;4072;42.668;23.396;2023-12-14T07:32:16;15.40;;;11.27;;
8058;SDS011;4072;42.668;23.396;2023-12-14T07:34:44;16.17;;;10.77;;
8058;SDS011;4072;42.668;23.396;2023-12-14T07:37:12;14.67;;;10.63;;
8058;SDS011;4072;42.668;23.396;2023-12-14T07:39:40;15.83;;;11.23;;
8058;SDS011;4072;42.668;23.396;2023-12-14T07:42:09;13.23;;;10.07;;
8058;SDS011;4072;42.668;23.396;2023-12-14T07:44:38;13.57;;;10.57;;
8058;SDS011;4072;42.668;23.396;2023-12-14T07:47:08;15.97;;;10.60;;
8058;SDS011;4072;42.668;23.396;2023-12-14T07:49:37;15.93;;;12.90;;
8058;SDS011;4072;42.668;23.396;2023-12-14T07:52:05;15.03;;;9.90;;
8058;SDS011;4072;42.668;23.396;2023-12-14T07:54:34;12.40;;;9.70;;
8058;SDS011;4072;42.668;23.396;2023-12-14T07:57:03;12.57;;;8.90;;
8058;SDS011;4072;42.668;23.396;2023-12-14T07:59:31;14.93;;;9.23;;
8058;SDS011;4072;42.668;23.396;2023-12-14T08:01:59;12.70;;;8.43;;
8058;SDS011;4072;42.668;23.396;2023-12-14T08:04:29;12.13;;;9.23;;
8058;SDS011;4072;42.668;23.396;2023-12-14T08:06:57;10.83;;;8.70;;
8058;SDS011;4072;42.668;23.396;2023-12-14T08:09:25;11.37;;;8.30;;
8058;SDS011;4072;42.668;23.396;2023-12-14T08:11:53;15.33;;;8.67;;
8058;SDS011;4072;42.668;23.396;2023-12-14T08:14:21;10.93;;;8.27;;
8058;SDS011;4072;42.668;23.396;2023-12-14T08:16:50;10.37;;;7.90;;
8058;SDS011;4072;42.668;23.396;2023-12-14T08:19:19;13.43;;;8.43;;
8058;SDS011;4072;42.668;23.396;2023-12-14T08:21:48;9.80;;;8.20;;
8058;SDS011;4072;42.668;23.396;2023-12-14T08:24:17;9.90;;;8.00;;
8058;SDS011;4072;42.668;23.396;2023-12-14T08:26:45;10.57;;;7.80;;
8058;SDS011;4072;42.668;23.396;2023-12-14T08:29:13;11.57;;;8.77;;
8058;SDS011;4072;42.668;23.396;2023-12-14T08:31:41;11.63;;;8.77;;
8058;SDS011;4072;42.668;23.396;2023-12-14T08:34:10;9.87;;;7.80;;
8058;SDS011;4072;42.668;23.396;2023-12-14T08:36:38;12.70;;;8.00;;
8058;SDS011;4072;42.668;23.396;2023-12-14T08:39:08;14.70;;;10.90;;
8058;SDS011;4072;42.668;23.396;2023-12-14T08:41:36;13.17;;;7.70;;
8058;SDS011;4072;42.668;23.396;2023-12-14T08:44:04;11.53;;;8.47;;
8058;SDS011;4072;42.668;23.396;2023-12-14T08:46:38;11.97;;;9.27;;
8058;SDS011;4072;42.668;23.396;2023-12-14T08:49:07;8.47;;;7.50;;
8058;SDS011;4072;42.668;23.396;2023-12-14T08:51:35;13.43;;;9.43;;
8058;SDS011;4072;42.668;23.396;2023-12-14T08:54:03;14.50;;;8.13;;
8058;SDS011;4072;42.668;23.396;2023-12-14T08:56:33;8.90;;;7.40;;
8058;SDS011;4072;42.668;23.396;2023-12-14T08:59:01;13.60;;;10.17;;
8058;SDS011;4072;42.668;23.396;2023-12-14T09:01:30;11.67;;;9.20;;
8058;SDS011;4072;42.668;23.396;2023-12-14T09:03:58;11.03;;;8.30;;
8058;SDS011;4072;42.668;23.396;2023-12-14T09:06:27;13.93;;;8.20;;
8058;SDS011;4072;42.668;23.396;2023-12-14T09:08:55;12.90;;;9.20;;
8058;SDS011;4072;42.668;23.396;2023-12-14T09:11:26;8.63;;;6.97;;
8058;SDS011;4072;42.668;23.396;2023-12-14T09:14:03;11.67;;;8.03;;
8058;SDS011;4072;42.668;23.396;2023-12-14T09:16:32;9.77;;;7.50;;
8058;SDS011;4072;42.668;23.396;2023-12-14T09:19:00;13.90;;;8.17;;
8058;SDS011;4072;42.668;23.396;2023-12-14T09:21:28;9.87;;;7.60;;
8058;SDS011;4072;42.668;23.396;2023-12-14T09:24:09;12.60;;;8.43;;
8058;SDS011;4072;42.668;23.396;2023-12-14T09:26:39;12.63;;;7.80;;
8058;SDS011;4072;42.668;23.396;2023-12-14T09:29:09;11.30;;;7.90;;
8058;SDS011;4072;42.668;23.396;2023-12-14T09:31:40;11.53;;;8.67;;
8058;SDS011;4072;42.668;23.396;2023-12-14T09:34:09;11.07;;;7.87;;
8058;SDS011;4072;42.668;23.396;2023-12-14T09:36:38;8.97;;;6.97;;
8058;SDS011;4072;42.668;23.396;2023-12-14T09:39:07;8.23;;;6.50;;
8058;SDS011;4072;42.668;23.396;2023-12-14T09:41:38;9.40;;;6.50;;
8058;SDS011;4072;42.668;23.396;2023-12-14T09:44:07;10.97;;;6.63;;
8058;SDS011;4072;42.668;23.396;2023-12-14T09:46:37;12.47;;;8.07;;
8058;SDS011;4072;42.668;23.396;2023-12-14T09:49:08;11.40;;;7.93;;
8058;SDS011;4072;42.668;23.396;2023-12-14T09:51:41;11.17;;;8.63;;
8058;SDS011;4072;42.668;23.396;2023-12-14T09:54:09;8.47;;;6.40;;
8058;SDS011;4072;42.668;23.396;2023-12-14T09:56:45;11.27;;;6.70;;
8058;SDS011;4072;42.668;23.396;2023-12-14T09:59:14;8.87;;;7.13;;
8058;SDS011;4072;42.668;23.396;2023-12-14T10:01:44;10.27;;;7.43;;
8058;SDS011;4072;42.668;23.396;2023-12-14T10:04:13;16.77;;;10.73;;
8058;SDS011;4072;42.668;23.396;2023-12-14T10:06:42;11.53;;;7.37;;
8058;SDS011;4072;42.668;23.396;2023-12-14T10:09:12;10.47;;;7.10;;
8058;SDS011;4072;42.668;23.396;2023-12-14T10:11:43;15.53;;;7.97;;
8058;SDS011;4072;42.668;23.396;2023-12-14T10:14:18;10.07;;;6.83;;
8058;SDS011;4072;42.668;23.396;2023-12-14T10:16:50;16.63;;;9.53;;
8058;SDS011;4072;42.668;23.396;2023-12-14T10:19:28;8.93;;;7.50;;
8058;SDS011;4072;42.668;23.396;2023-12-14T10:21:57;11.43;;;7.83;;
8058;SDS011;4072;42.668;23.396;2023-12-14T10:24:28;12.00;;;8.87;;
8058;SDS011;4072;42.668;23.396;2023-12-14T10:26:56;13.53;;;8.00;;
8058;SDS011;4072;42.668;23.396;2023-12-14T10:29:24;12.40;;;7.03;;
8058;SDS011;4072;42.668;23.396;2023-12-14T10:31:54;9.23;;;7.00;;
8058;SDS011;4072;42.668;23.396;2023-12-14T10:34:22;8.40;;;6.43;;
8058;SDS011;4072;42.668;23.396;2023-12-14T10:36:50;21.40;;;14.50;;
8058;SDS011;4072;42.668;23.396;2023-12-14T10:39:19;43.83;;;30.90;;
8058;SDS011;4072;42.668;23.396;2023-12-14T10:41:48;55.93;;;38.07;;
8058;SDS011;4072;42.668;23.396;2023-12-14T10:44:34;57.00;;;39.43;;
8058;SDS011;4072;42.668;23.396;2023-12-14T10:47:25;61.20;;;41.83;;
8058;SDS011;4072;42.668;23.396;2023-12-14T10:49:54;47.83;;;33.63;;
8058;SDS011;4072;42.668;23.396;2023-12-14T10:52:24;47.43;;;29.53;;
8058;SDS011;4072;42.668;23.396;2023-12-14T10:54:56;42.13;;;27.40;;
8058;SDS011;4072;42.668;23.396;2023-12-14T10:57:30;41.20;;;28.33;;
8058;SDS011;4072;42.668;23.396;2023-12-14T10:59:59;36.53;;;27.03;;
8058;SDS011;4072;42.668;23.396;2023-12-14T11:02:29;39.17;;;22.93;;
8058;SDS011;4072;42.668;23.396;2023-12-14T11:05:00;36.07;;;24.83;;
8058;SDS011;4072;42.668;23.396;2023-12-14T11:07:45;29.37;;;17.77;;
8058;SDS011;4072;42.668;23.396;2023-12-14T11:10:15;16.03;;;11.07;;
8058;SDS011;4072;42.668;23.396;2023-12-14T11:12:56;11.73;;;8.53;;
8058;SDS011;4072;42.668;23.396;2023-12-14T11:15:28;11.27;;;8.30;;
8058;SDS011;4072;42.668;23.396;2023-12-14T11:21:03;6.87;;;5.20;;
8058;SDS011;4072;42.668;23.396;2023-12-14T11:23:32;6.73;;;4.67;;
8058;SDS011;4072;42.668;23.396;2023-12-14T11:26:03;10.90;;;7.90;;
8058;SDS011;4072;42.668;23.396;2023-12-14T11:28:34;8.13;;;4.60;;
8058;SDS011;4072;42.668;23.396;2023-12-14T11:31:03;4.00;;;3.63;;
8058;SDS011;4072;42.668;23.396;2023-12-14T11:33:34;3.83;;;2.40;;
8058;SDS011;4072;42.668;23.396;2023-12-14T11:36:11;3.17;;;2.27;;
8058;SDS011;4072;42.668;23.396;2023-12-14T11:38:41;3.93;;;2.83;;
8058;SDS011;4072;42.668;23.396;2023-12-14T11:41:10;3.10;;;2.03;;
8058;SDS011;4072;42.668;23.396;2023-12-14T11:43:39;2.13;;;1.93;;
8058;SDS011;4072;42.668;23.396;2023-12-14T11:46:09;3.80;;;2.60;;
8058;SDS011;4072;42.668;23.396;2023-12-14T11:48:38;2.60;;;2.30;;
8058;SDS011;4072;42.668;23.396;2023-12-14T11:51:07;2.60;;;2.10;;
8058;SDS011;4072;42.668;23.396;2023-12-14T11:53:37;2.63;;;1.63;;
8058;SDS011;4072;42.668;23.396;2023-12-14T11:56:06;4.33;;;2.57;;
8058;SDS011;4072;42.668;23.396;2023-12-14T11:58:35;2.77;;;1.20;;
8058;SDS011;4072;42.668;23.396;2023-12-14T12:01:11;1.77;;;1.20;;
8058;SDS011;4072;42.668;23.396;2023-12-14T12:03:40;1.40;;;1.30;;
8058;SDS011;4072;42.668;23.396;2023-12-14T12:06:19;1.00;;;0.93;;
8058;SDS011;4072;42.668;23.396;2023-12-14T12:08:49;0.80;;;0.80;;
8058;SDS011;4072;42.668;23.396;2023-12-14T12:11:18;6.07;;;1.20;;
8058;SDS011;4072;42.668;23.396;2023-12-14T12:13:50;1.10;;;0.90;;
8058;SDS011;4072;42.668;23.396;2023-12-14T12:16:19;1.03;;;0.93;;
8058;SDS011;4072;42.668;23.396;2023-12-14T12:18:47;1.53;;;1.40;;
8058;SDS011;4072;42.668;23.396;2023-12-14T12:21:17;1.73;;;1.47;;
8058;SDS011;4072;42.668;23.396;2023-12-14T12:23:46;1.77;;;0.90;;
8058;SDS011;4072;42.668;23.396;2023-12-14T12:26:15;1.67;;;0.93;;
8058;SDS011;4072;42.668;23.396;2023-12-14T12:28:44;4.03;;;1.20;;
8058;SDS011;4072;42.668;23.396;2023-12-14T12:31:15;1.13;;;1.03;;
8058;SDS011;4072;42.668;23.396;2023-12-14T12:33:43;3.80;;;1.13;;
8058;SDS011;4072;42.668;23.396;2023-12-14T12:36:11;2.23;;;1.00;;
8058;SDS011;4072;42.668;23.396;2023-12-14T12:38:40;1.30;;;0.90;;
8058;SDS011;4072;42.668;23.396;2023-12-14T12:41:09;0.83;;;0.83;;
8058;SDS011;4072;42.668;23.396;2023-12-14T12:43:38;1.33;;;1.00;;
8058;SDS011;4072;42.668;23.396;2023-12-14T12:46:07;1.00;;;0.90;;
8058;SDS011;4072;42.668;23.396;2023-12-14T12:48:35;1.00;;;0.90;;
8058;SDS011;4072;42.668;23.396;2023-12-14T12:51:04;0.87;;;0.87;;
8058;SDS011;4072;42.668;23.396;2023-12-14T12:53:32;1.17;;;1.07;;
8058;SDS011;4072;42.668;23.396;2023-12-14T12:56:00;1.13;;;1.13;;
8058;SDS011;4072;42.668;23.396;2023-12-14T12:58:29;3.03;;;1.23;;
8058;SDS011;4072;42.668;23.396;2023-12-14T13:00:59;1.13;;;1.10;;
8058;SDS011;4072;42.668;23.396;2023-12-14T13:03:27;0.70;;;0.70;;
8058;SDS011;4072;42.668;23.396;2023-12-14T13:05:55;2.47;;;1.30;;
8058;SDS011;4072;42.668;23.396;2023-12-14T13:08:26;1.93;;;1.00;;
8058;SDS011;4072;42.668;23.396;2023-12-14T13:10:54;3.07;;;1.27;;
8058;SDS011;4072;42.668;23.396;2023-12-14T13:13:22;1.20;;;1.10;;
8058;SDS011;4072;42.668;23.396;2023-12-14T13:15:53;1.57;;;1.30;;
8058;SDS011;4072;42.668;23.396;2023-12-14T13:18:23;1.10;;;1.10;;
8058;SDS011;4072;42.668;23.396;2023-12-14T13:20:52;1.83;;;1.43;;
8058;SDS011;4072;42.668;23.396;2023-12-14T13:23:20;0.80;;;0.80;;
8058;SDS011;4072;42.668;23.396;2023-12-14T13:25:49;1.40;;;1.20;;
8058;SDS011;4072;42.668;23.396;2023-12-14T13:28:17;3.57;;;1.60;;
8058;SDS011;4072;42.668;23.396;2023-12-14T13:30:46;2.67;;;1.40;;
8058;SDS011;4072;42.668;23.396;2023-12-14T13:33:15;5.07;;;1.30;;
8058;SDS011;4072;42.668;23.396;2023-12-14T13:35:45;1.27;;;1.17;;
8058;SDS011;4072;42.668;23.396;2023-12-14T13:38:13;1.77;;;1.10;;
8058;SDS011;4072;42.668;23.396;2023-12-14T13:40:42;2.30;;;1.37;;
8058;SDS011;4072;42.668;23.396;2023-12-14T13:43:13;1.53;;;1.27;;
8058;SDS011;4072;42.668;23.396;2023-12-14T13:45:41;0.90;;;0.90;;
8058;SDS011;4072;42.668;23.396;2023-12-14T13:48:09;1.60;;;0.90;;
8058;SDS011;4072;42.668;23.396;2023-12-14T13:50:38;2.30;;;1.10;;
8058;SDS011;4072;42.668;23.396;2023-12-14T13:53:08;1.03;;;1.00;;
8058;SDS011;4072;42.668;23.396;2023-12-14T13:55:36;1.20;;;1.10;;
8058;SDS011;4072;42.668;23.396;2023-12-14T13:58:05;1.93;;;1.37;;
8058;SDS011;4072;42.668;23.396;2023-12-14T14:00:33;5.13;;;1.70;;
8058;SDS011;4072;42.668;23.396;2023-12-14T14:03:02;2.53;;;1.70;;
8058;SDS011;4072;42.668;23.396;2023-12-14T14:05:31;5.30;;;1.77;;
8058;SDS011;4072;42.668;23.396;2023-12-14T14:08:00;1.20;;;1.10;;
8058;SDS011;4072;42.668;23.396;2023-12-14T14:10:33;1.37;;;0.83;;
8058;SDS011;4072;42.668;23.396;2023-12-14T14:13:02;1.03;;;0.90;;
8058;SDS011;4072;42.668;23.396;2023-12-14T14:15:30;0.80;;;0.80;;
8058;SDS011;4072;42.668;23.396;2023-12-14T14:17:58;1.77;;;1.20;;
8058;SDS011;4072;42.668;23.396;2023-12-14T14:20:27;1.93;;;1.53;;
8058;SDS011;4072;42.668;23.396;2023-12-14T14:22:56;1.53;;;1.00;;
8058;SDS011;4072;42.668;23.396;2023-12-14T14:25:26;1.50;;;0.83;;
8058;SDS011;4072;42.668;23.396;2023-12-14T14:27:56;0.80;;;0.70;;
8058;SDS011;4072;42.668;23.396;2023-12-14T14:30:25;1.60;;;1.07;;
8058;SDS011;4072;42.668;23.396;2023-12-14T14:32:54;3.37;;;1.07;;
8058;SDS011;4072;42.668;23.396;2023-12-14T14:35:22;1.43;;;1.03;;
8058;SDS011;4072;42.668;23.396;2023-12-14T14:37:52;1.00;;;0.60;;
8058;SDS011;4072;42.668;23.396;2023-12-14T14:40:21;3.60;;;1.23;;
8058;SDS011;4072;42.668;23.396;2023-12-14T14:42:50;0.70;;;0.70;;
8058;SDS011;4072;42.668;23.396;2023-12-14T14:45:19;1.30;;;0.80;;
8058;SDS011;4072;42.668;23.396;2023-12-14T14:47:47;2.70;;;1.60;;
8058;SDS011;4072;42.668;23.396;2023-12-14T14:50:16;3.67;;;1.50;;
8058;SDS011;4072;42.668;23.396;2023-12-14T14:52:45;1.73;;;1.27;;
8058;SDS011;4072;42.668;23.396;2023-12-14T14:55:13;2.20;;;1.20;;
8058;SDS011;4072;42.668;23.396;2023-12-14T14:57:41;3.70;;;0.97;;
8058;SDS011;4072;42.668;23.396;2023-12-14T15:00:10;1.27;;;0.80;;